createdAt,value
2022-10-16T00:01:09.881Z,1.60
2022-10-16T00:03:37.840Z,1.67
2022-10-16T00:06:06.421Z,1.67
2022-10-16T00:08:35.017Z,1.70
2022-10-16T00:11:04.803Z,1.60
2022-10-16T00:13:33.557Z,1.90
2022-10-16T00:16:02.702Z,1.63
2022-10-16T00:18:32.286Z,1.80
2022-10-16T00:21:05.019Z,1.58
2022-10-16T00:23:33.257Z,1.52
2022-10-16T00:26:03.427Z,1.60
2022-10-16T00:28:32.186Z,1.30
2022-10-16T00:31:00.277Z,1.42
2022-10-16T00:33:28.204Z,1.00
2022-10-16T00:35:59.954Z,1.40
2022-10-16T00:38:27.913Z,1.60
2022-10-16T00:40:56.056Z,1.58
2022-10-16T00:43:40.308Z,1.67
2022-10-16T00:46:15.369Z,1.52
2022-10-16T00:48:45.084Z,1.20
2022-10-16T00:51:14.379Z,1.80
2022-10-16T00:53:42.302Z,1.65
2022-10-16T00:56:10.303Z,1.40
2022-10-16T00:58:38.386Z,1.50
2022-10-16T01:01:06.568Z,1.75
2022-10-16T01:03:36.616Z,1.75
2022-10-16T01:06:17.325Z,1.80
2022-10-16T01:08:59.259Z,1.70
2022-10-16T01:11:34.591Z,1.92
2022-10-16T01:14:12.485Z,1.65
2022-10-16T01:16:48.610Z,1.55
2022-10-16T01:19:21.926Z,1.65
2022-10-16T01:21:53.327Z,1.90
2022-10-16T01:24:34.769Z,1.77
2022-10-16T01:27:11.370Z,2.10
2022-10-16T01:29:44.523Z,1.75
2022-10-16T01:32:18.266Z,2.20
2022-10-16T01:34:51.739Z,1.92
2022-10-16T01:37:35.104Z,2.20
2022-10-16T01:40:07.133Z,2.00
2022-10-16T01:42:40.668Z,1.85
2022-10-16T01:45:12.372Z,1.85
2022-10-16T01:47:41.947Z,2.10
2022-10-16T01:50:10.778Z,2.22
2022-10-16T01:52:41.811Z,1.90
2022-10-16T01:55:12.197Z,1.73
2022-10-16T01:57:46.610Z,2.00
2022-10-16T02:00:16.205Z,2.13
2022-10-16T02:02:50.023Z,2.10
2022-10-16T02:05:24.027Z,2.20
2022-10-16T02:07:52.029Z,2.42
2022-10-16T02:10:20.231Z,2.40
2022-10-16T02:12:55.358Z,2.60
2022-10-16T02:15:23.250Z,2.60
2022-10-16T02:17:51.129Z,2.80
2022-10-16T02:20:20.770Z,2.88
2022-10-16T02:22:52.523Z,2.83
2022-10-16T02:25:26.843Z,2.95
2022-10-16T02:27:59.899Z,2.85
2022-10-16T02:30:32.499Z,3.03
2022-10-16T02:33:03.283Z,2.80
2022-10-16T02:35:32.441Z,3.03
2022-10-16T02:38:01.088Z,2.70
2022-10-16T02:40:29.663Z,2.70
2022-10-16T02:42:58.928Z,3.00
2022-10-16T02:45:27.215Z,2.83
2022-10-16T02:47:55.274Z,2.72
2022-10-16T02:50:23.590Z,2.70
2022-10-16T02:52:51.456Z,2.63
2022-10-16T02:55:19.405Z,2.60
2022-10-16T02:57:47.307Z,3.08
2022-10-16T03:00:18.527Z,3.13
2022-10-16T03:02:46.461Z,3.00
2022-10-16T03:05:14.953Z,3.20
2022-10-16T03:07:42.914Z,3.10
2022-10-16T03:10:11.605Z,3.45
2022-10-16T03:12:39.506Z,3.58
2022-10-16T03:15:08.334Z,4.10
2022-10-16T03:17:37.797Z,3.70
2022-10-16T03:20:06.512Z,4.22
2022-10-16T03:22:34.402Z,4.00
2022-10-16T03:25:02.262Z,3.95
2022-10-16T03:27:30.181Z,3.50
2022-10-16T03:29:58.065Z,4.07
2022-10-16T03:32:26.768Z,4.43
2022-10-16T03:34:57.413Z,3.90
2022-10-16T03:37:26.045Z,4.03
2022-10-16T03:39:54.260Z,4.13
2022-10-16T03:42:22.252Z,3.97
2022-10-16T03:44:50.119Z,3.70
2022-10-16T03:47:21.706Z,3.70
2022-10-16T03:49:49.776Z,4.50
2022-10-16T03:54:51.893Z,4.53
2022-10-16T03:57:19.926Z,4.40
2022-10-16T03:59:47.787Z,4.18
2022-10-16T04:02:15.815Z,4.45
2022-10-16T04:04:43.690Z,5.25
2022-10-16T04:07:11.619Z,4.47
2022-10-16T04:09:40.856Z,5.30
2022-10-16T04:12:08.738Z,5.13
2022-10-16T04:14:36.626Z,5.10
2022-10-16T04:17:04.526Z,5.03
2022-10-16T04:19:32.473Z,5.80
2022-10-16T04:22:00.374Z,4.93
2022-10-16T04:24:28.261Z,5.45
2022-10-16T04:26:57.656Z,4.68
2022-10-16T04:29:25.634Z,4.97
2022-10-16T04:31:53.727Z,5.32
2022-10-16T04:34:21.660Z,5.72
2022-10-16T04:36:50.331Z,5.35
2022-10-16T04:39:18.410Z,4.82
2022-10-16T04:41:46.294Z,4.93
2022-10-16T04:44:15.796Z,5.00
2022-10-16T04:46:43.666Z,5.45
2022-10-16T04:49:11.602Z,5.35
2022-10-16T04:51:39.483Z,6.03
2022-10-16T04:54:07.375Z,5.65
2022-10-16T04:56:41.075Z,5.47
2022-10-16T04:59:08.968Z,5.30
2022-10-16T05:01:38.217Z,6.68
2022-10-16T05:04:06.284Z,6.78
2022-10-16T05:06:34.275Z,7.30
2022-10-16T05:09:02.293Z,9.00
2022-10-16T05:11:30.159Z,8.82
2022-10-16T05:13:58.105Z,10.02
2022-10-16T05:16:26.041Z,7.30
2022-10-16T05:19:00.030Z,8.23
2022-10-16T05:21:32.306Z,8.43
2022-10-16T05:24:00.182Z,10.95
2022-10-16T05:26:28.085Z,10.38
2022-10-16T05:28:56.031Z,9.65
2022-10-16T05:31:24.002Z,10.75
2022-10-16T05:33:51.913Z,10.55
2022-10-16T05:36:21.134Z,9.48
2022-10-16T05:38:53.453Z,11.27
2022-10-16T05:43:50.954Z,11.65
2022-10-16T05:46:19.172Z,10.27
2022-10-16T05:48:47.245Z,10.20
2022-10-16T05:51:16.979Z,9.75
2022-10-16T05:53:46.276Z,9.88
2022-10-16T05:56:14.452Z,10.68
2022-10-16T05:58:42.960Z,10.43
2022-10-16T06:01:14.162Z,9.60
2022-10-16T06:03:42.605Z,8.68
2022-10-16T06:06:12.488Z,8.50
2022-10-16T06:08:41.254Z,9.38
2022-10-16T06:11:15.002Z,8.60
2022-10-16T06:13:43.594Z,10.15
2022-10-16T06:16:12.504Z,7.93
2022-10-16T06:18:40.643Z,9.48
2022-10-16T06:21:13.997Z,9.32
2022-10-16T06:23:41.949Z,10.00
2022-10-16T06:26:12.525Z,7.07
2022-10-16T06:28:40.719Z,6.72
2022-10-16T06:31:10.217Z,7.22
2022-10-16T06:33:38.417Z,6.22
2022-10-16T06:36:08.174Z,6.70
2022-10-16T06:38:36.449Z,6.85
2022-10-16T06:41:04.707Z,4.32
2022-10-16T06:43:36.173Z,6.45
2022-10-16T06:46:06.462Z,6.87
2022-10-16T06:48:34.352Z,7.00
2022-10-16T06:54:01.114Z,7.22
2022-10-16T06:56:28.344Z,8.02
2022-10-16T06:58:57.632Z,8.32
2022-10-16T07:01:26.492Z,7.28
2022-10-16T07:03:55.238Z,8.65
2022-10-16T07:06:25.614Z,8.23
2022-10-16T07:08:54.088Z,9.18
2022-10-16T07:11:24.220Z,9.23
2022-10-16T07:13:56.184Z,9.43
2022-10-16T07:16:27.246Z,10.05
2022-10-16T07:18:59.336Z,9.93
2022-10-16T07:21:29.077Z,11.27
2022-10-16T07:23:58.913Z,10.07
2022-10-16T07:26:28.236Z,10.95
2022-10-16T07:28:56.381Z,11.80
2022-10-16T07:31:26.092Z,10.82
2022-10-16T07:33:54.180Z,8.80
2022-10-16T07:36:22.756Z,10.05
2022-10-16T07:38:52.879Z,10.50
2022-10-16T07:41:23.481Z,11.02
2022-10-16T07:43:52.862Z,8.90
2022-10-16T07:46:21.638Z,9.73
2022-10-16T07:48:50.902Z,10.07
2022-10-16T07:51:20.686Z,9.57
2022-10-16T07:53:49.235Z,10.45
2022-10-16T07:56:18.781Z,10.35
2022-10-16T07:58:47.454Z,10.15
2022-10-16T08:01:17.201Z,9.65
2022-10-16T08:03:46.144Z,11.48
2022-10-16T08:06:16.047Z,11.82
2022-10-16T08:08:44.065Z,11.80
2022-10-16T08:11:12.341Z,9.88
2022-10-16T08:13:40.258Z,9.20
2022-10-16T08:16:10.269Z,9.85
2022-10-16T08:18:38.670Z,9.70
2022-10-16T08:21:08.175Z,9.30
2022-10-16T08:23:37.444Z,10.38
2022-10-16T08:26:07.618Z,9.95
2022-10-16T08:28:36.053Z,8.02
2022-10-16T08:31:08.364Z,6.25
2022-10-16T08:36:05.871Z,8.05
2022-10-16T08:38:34.051Z,8.27
2022-10-16T08:41:25.295Z,8.52
2022-10-16T08:44:26.554Z,9.25
2022-10-16T08:47:03.091Z,8.77
2022-10-16T08:49:32.452Z,7.00
2022-10-16T08:52:01.180Z,5.93
2022-10-16T08:54:34.899Z,6.13
2022-10-16T08:57:11.942Z,5.95
2022-10-16T08:59:39.953Z,5.40
2022-10-16T09:02:25.674Z,6.45
2022-10-16T09:05:04.489Z,7.03
2022-10-16T09:07:39.791Z,6.28
2022-10-16T09:10:29.535Z,5.22
2022-10-16T09:13:09.759Z,5.05
2022-10-16T09:15:44.034Z,6.13
2022-10-16T09:18:18.548Z,6.20
2022-10-16T09:20:53.339Z,5.35
2022-10-16T09:23:27.254Z,5.03
2022-10-16T09:25:57.135Z,4.60
2022-10-16T09:28:26.603Z,4.53
2022-10-16T09:30:55.226Z,5.28
2022-10-16T09:33:27.192Z,4.05
2022-10-16T09:35:59.698Z,4.50
2022-10-16T09:38:29.954Z,4.28
2022-10-16T09:41:03.242Z,4.70
2022-10-16T09:43:40.834Z,4.35
2022-10-16T09:46:10.639Z,3.75
2022-10-16T09:48:41.254Z,5.00
2022-10-16T09:51:20.815Z,4.25
2022-10-16T09:53:49.893Z,3.88
2022-10-16T09:56:25.676Z,4.00
2022-10-16T09:58:57.396Z,4.05
2022-10-16T10:01:30.224Z,3.38
2022-10-16T10:04:02.117Z,3.97
2022-10-16T10:06:33.187Z,3.65
2022-10-16T10:09:05.552Z,3.42
2022-10-16T10:14:29.642Z,3.40
2022-10-16T10:17:14.302Z,3.08
2022-10-16T10:19:46.731Z,3.83
2022-10-16T10:22:31.195Z,3.10
2022-10-16T10:25:10.151Z,3.15
2022-10-16T10:27:46.233Z,3.65
2022-10-16T10:30:22.795Z,3.30
2022-10-16T10:33:05.006Z,3.35
2022-10-16T10:35:44.690Z,3.58
2022-10-16T10:38:28.023Z,3.25
2022-10-16T10:41:07.677Z,3.72
2022-10-16T10:43:48.117Z,3.15
2022-10-16T10:46:25.193Z,3.40
2022-10-16T10:49:08.604Z,3.40
2022-10-16T10:51:47.923Z,2.88
2022-10-16T10:54:22.680Z,3.13
2022-10-16T10:56:59.626Z,2.30
2022-10-16T10:59:44.254Z,3.15
2022-10-16T11:02:21.051Z,2.85
2022-10-16T11:05:17.493Z,2.75
2022-10-16T11:07:51.636Z,2.88
2022-10-16T11:10:23.759Z,2.55
2022-10-16T11:12:55.534Z,2.53
2022-10-16T11:15:29.159Z,2.47
2022-10-16T11:18:05.485Z,2.70
2022-10-16T11:20:36.671Z,2.83
2022-10-16T11:23:11.330Z,2.58
2022-10-16T11:25:41.065Z,2.78
2022-10-16T11:28:13.490Z,2.60
2022-10-16T11:30:48.370Z,2.22
2022-10-16T11:33:40.250Z,2.15
2022-10-16T11:36:15.112Z,2.00
2022-10-16T11:38:51.130Z,1.90
2022-10-16T11:41:26.326Z,2.17
2022-10-16T11:44:05.650Z,2.45
2022-10-16T11:46:52.533Z,2.33
2022-10-16T11:49:30.160Z,2.50
2022-10-16T11:52:07.404Z,1.85
2022-10-16T11:54:41.622Z,2.20
2022-10-16T11:57:14.732Z,2.70
2022-10-16T11:59:47.950Z,2.42
2022-10-16T12:02:46.294Z,1.92
2022-10-16T12:05:24.174Z,2.20
2022-10-16T12:08:00.094Z,2.13
2022-10-16T12:10:30.318Z,2.00
2022-10-16T12:12:58.659Z,1.95
2022-10-16T12:15:58.778Z,2.67
2022-10-16T12:18:23.901Z,2.17
2022-10-16T12:21:01.031Z,2.20
2022-10-16T12:23:29.071Z,2.58
2022-10-16T12:25:58.155Z,2.25
2022-10-16T12:28:30.521Z,2.63
2022-10-16T12:31:00.795Z,2.92
2022-10-16T12:33:31.051Z,2.53
2022-10-16T12:36:01.732Z,2.15
2022-10-16T12:38:32.678Z,2.60
2022-10-16T12:41:03.311Z,2.20
2022-10-16T12:43:40.133Z,2.78
2022-10-16T12:46:24.513Z,2.45
2022-10-16T12:49:06.655Z,2.30
2022-10-16T12:51:41.201Z,2.80
2022-10-16T12:54:16.065Z,2.80
2022-10-16T12:56:57.705Z,2.45
2022-10-16T12:59:36.170Z,2.60
2022-10-16T13:02:33.692Z,2.60
2022-10-16T13:05:16.930Z,2.20
2022-10-16T13:07:56.609Z,2.53
2022-10-16T13:10:29.692Z,2.88
2022-10-16T13:13:36.977Z,2.58
2022-10-16T13:16:15.108Z,2.90
2022-10-16T13:18:54.422Z,2.83
2022-10-16T13:21:34.538Z,2.35
2022-10-16T13:24:10.803Z,2.70
2022-10-16T13:26:47.588Z,2.78
2022-10-16T13:29:16.452Z,2.47
2022-10-16T13:31:46.156Z,2.60
2022-10-16T13:34:18.969Z,2.58
2022-10-16T13:36:51.185Z,2.25
2022-10-16T13:42:09.141Z,2.70
2022-10-16T13:44:43.082Z,2.17
2022-10-16T13:47:18.318Z,2.60
2022-10-16T13:49:46.859Z,3.03
2022-10-16T13:52:19.856Z,2.45
2022-10-16T13:54:49.805Z,2.53
2022-10-16T13:57:33.869Z,2.47
2022-10-16T14:00:01.752Z,2.38
2022-10-16T14:02:32.251Z,2.20
2022-10-16T14:05:00.616Z,2.38
2022-10-16T14:07:30.829Z,2.30
2022-10-16T14:10:03.865Z,2.70
2022-10-16T14:12:32.179Z,2.85
2022-10-16T14:15:01.966Z,2.70
2022-10-16T14:17:32.051Z,2.55
2022-10-16T14:20:02.950Z,2.63
2022-10-16T14:22:39.339Z,2.55
2022-10-16T14:25:27.393Z,2.40
2022-10-16T14:28:04.722Z,2.67
2022-10-16T14:30:34.830Z,2.30
2022-10-16T14:33:04.471Z,2.83
2022-10-16T14:35:35.031Z,2.40
2022-10-16T14:38:04.880Z,2.80
2022-10-16T14:40:35.901Z,3.00
2022-10-16T14:43:04.957Z,3.45
2022-10-16T14:45:35.831Z,2.67
2022-10-16T14:48:07.143Z,2.85
2022-10-16T14:50:35.074Z,3.30
2022-10-16T14:53:02.974Z,2.92
2022-10-16T14:55:31.088Z,2.60
2022-10-16T14:58:01.022Z,2.88
2022-10-16T15:00:29.448Z,3.33
2022-10-16T15:02:57.390Z,2.90
2022-10-16T15:05:27.867Z,2.90
2022-10-16T15:07:56.813Z,2.90
2022-10-16T15:10:26.343Z,2.75
2022-10-16T15:12:54.499Z,2.58
2022-10-16T15:15:36.917Z,2.50
2022-10-16T15:20:36.029Z,2.75
2022-10-16T15:23:08.031Z,2.97
2022-10-16T15:25:40.597Z,2.70
2022-10-16T15:28:08.920Z,2.80
2022-10-16T15:30:39.025Z,2.80
2022-10-16T15:33:11.906Z,3.20
2022-10-16T15:35:39.851Z,3.40
2022-10-16T15:38:07.743Z,2.90
2022-10-16T15:40:35.768Z,3.00
2022-10-16T15:43:03.700Z,2.95
2022-10-16T15:45:31.597Z,3.03
2022-10-16T15:48:01.386Z,2.63
2022-10-16T15:50:29.510Z,3.22
2022-10-16T15:52:57.462Z,2.60
2022-10-16T15:55:25.420Z,3.20
2022-10-16T15:57:53.467Z,2.75
2022-10-16T16:00:23.075Z,3.17
2022-10-16T16:02:55.871Z,3.53
2022-10-16T16:05:25.200Z,2.97
2022-10-16T16:07:56.238Z,3.00
2022-10-16T16:10:24.199Z,2.88
2022-10-16T16:12:53.551Z,3.03
2022-10-16T16:15:22.779Z,3.67
2022-10-16T16:17:51.121Z,2.85
2022-10-16T16:20:19.133Z,3.28
2022-10-16T16:22:48.386Z,3.47
2022-10-16T16:25:16.452Z,3.60
2022-10-16T16:27:45.349Z,3.22
2022-10-16T16:30:18.296Z,3.38
2022-10-16T16:32:47.989Z,3.50
2022-10-16T16:35:18.971Z,3.15
2022-10-16T16:37:49.327Z,3.58
2022-10-16T16:40:17.497Z,3.72
2022-10-16T16:42:45.533Z,3.15
2022-10-16T16:45:13.403Z,3.40
2022-10-16T16:47:41.361Z,3.45
2022-10-16T16:50:11.267Z,3.85
2022-10-16T16:52:39.151Z,3.42
2022-10-16T16:55:09.359Z,3.90
2022-10-16T16:57:37.273Z,3.83
2022-10-16T17:00:07.128Z,3.70
2022-10-16T17:02:35.128Z,3.90
2022-10-16T17:05:03.080Z,5.20
2022-10-16T17:07:35.556Z,5.03
2022-10-16T17:10:04.186Z,4.63
2022-10-16T17:12:34.789Z,5.00
2022-10-16T17:15:03.009Z,4.50
2022-10-16T17:17:31.106Z,4.65
2022-10-16T17:19:59.115Z,4.80
2022-10-16T17:22:27.696Z,4.30
2022-10-16T17:24:55.943Z,4.65
2022-10-16T17:27:23.944Z,4.75
2022-10-16T17:29:57.550Z,4.75
2022-10-16T17:32:25.800Z,5.28
2022-10-16T17:34:54.317Z,5.65
2022-10-16T17:37:22.266Z,5.32
2022-10-16T17:39:51.757Z,5.35
2022-10-16T17:42:19.716Z,6.40
2022-10-16T17:44:47.579Z,6.10
2022-10-16T17:47:16.882Z,6.70
2022-10-16T17:49:44.807Z,6.18
2022-10-16T17:52:12.788Z,7.50
2022-10-16T17:54:42.275Z,7.20
2022-10-16T17:57:10.209Z,7.20
2022-10-16T17:59:38.529Z,7.00
2022-10-16T18:02:06.506Z,7.47
2022-10-16T18:04:37.335Z,7.70
2022-10-16T18:07:07.544Z,6.63
2022-10-16T18:09:35.496Z,7.05
2022-10-16T18:12:03.393Z,6.13
2022-10-16T18:14:33.129Z,5.95
2022-10-16T18:17:01.091Z,6.13
2022-10-16T18:19:29.302Z,5.55
2022-10-16T18:21:58.786Z,6.25
2022-10-16T18:24:27.646Z,6.00
2022-10-16T18:26:57.407Z,5.80
2022-10-16T18:29:26.615Z,6.00
2022-10-16T18:31:54.649Z,5.60
2022-10-16T18:34:22.603Z,5.30
2022-10-16T18:36:52.776Z,5.70
2022-10-16T18:42:01.779Z,5.25
2022-10-16T18:44:31.227Z,5.68
2022-10-16T18:46:59.277Z,6.22
2022-10-16T18:49:27.441Z,6.15
2022-10-16T18:51:57.116Z,5.78
2022-10-16T18:54:26.651Z,6.90
2022-10-16T18:56:54.846Z,7.55
2022-10-16T18:59:23.117Z,7.38
2022-10-16T19:01:52.292Z,6.75
2022-10-16T19:04:22.406Z,6.70
2022-10-16T19:06:52.783Z,6.85
2022-10-16T19:09:22.343Z,6.47
2022-10-16T19:14:21.202Z,7.03
2022-10-16T19:16:49.396Z,7.57
2022-10-16T19:19:19.260Z,6.68
2022-10-16T19:21:48.210Z,7.60
2022-10-16T19:24:16.854Z,7.80
2022-10-16T19:26:44.976Z,9.55
2022-10-16T19:29:14.519Z,7.72
2022-10-16T19:31:42.871Z,8.80
2022-10-16T19:34:11.730Z,8.88
2022-10-16T19:36:40.837Z,10.38
2022-10-16T19:39:12.945Z,10.15
2022-10-16T19:41:41.167Z,9.10
2022-10-16T19:44:14.646Z,10.05
2022-10-16T19:46:44.784Z,11.52
2022-10-16T19:49:21.741Z,10.95
2022-10-16T19:51:51.720Z,10.85
2022-10-16T19:54:20.229Z,9.52
2022-10-16T19:56:48.324Z,9.95
2022-10-16T19:59:19.291Z,10.02
2022-10-16T20:01:49.236Z,10.05
2022-10-16T20:04:17.607Z,9.80
2022-10-16T20:06:46.149Z,12.88
2022-10-16T20:09:14.623Z,11.30
2022-10-16T20:11:42.726Z,14.45
2022-10-16T20:14:10.901Z,12.23
2022-10-16T20:16:40.262Z,13.20
2022-10-16T20:19:11.391Z,13.65
2022-10-16T20:21:39.664Z,13.60
2022-10-16T20:24:08.234Z,13.95
2022-10-16T20:26:36.766Z,13.55
2022-10-16T20:29:05.662Z,15.00
2022-10-16T20:31:34.883Z,14.02
2022-10-16T20:34:05.945Z,15.15
2022-10-16T20:36:36.755Z,14.07
2022-10-16T20:39:06.497Z,13.82
2022-10-16T20:41:34.595Z,12.80
2022-10-16T20:44:02.941Z,13.70
2022-10-16T20:46:30.874Z,13.77
2022-10-16T20:49:10.387Z,13.15
2022-10-16T20:51:40.899Z,13.93
2022-10-16T20:54:08.982Z,13.00
2022-10-16T20:56:37.828Z,12.18
2022-10-16T20:59:06.387Z,12.73
2022-10-16T21:01:35.709Z,13.65
2022-10-16T21:04:05.684Z,13.35
2022-10-16T21:06:35.755Z,13.48
2022-10-16T21:09:06.555Z,12.52
2022-10-16T21:11:36.573Z,13.45
2022-10-16T21:14:07.092Z,12.98
2022-10-16T21:16:35.540Z,12.05
2022-10-16T21:19:03.940Z,11.77
2022-10-16T21:21:33.905Z,11.80
2022-10-16T21:24:03.156Z,10.45
2022-10-16T21:26:36.040Z,10.95
2022-10-16T21:29:06.407Z,10.20
2022-10-16T21:31:35.031Z,9.45
2022-10-16T21:34:03.813Z,12.23
2022-10-16T21:36:33.590Z,12.63
2022-10-16T21:39:02.904Z,11.70
2022-10-16T21:41:32.294Z,11.63
2022-10-16T21:44:00.873Z,12.23
2022-10-16T21:46:31.617Z,11.30
2022-10-16T21:49:03.936Z,9.52
2022-10-16T21:54:02.087Z,11.05
2022-10-16T21:56:30.187Z,10.40
2022-10-16T21:59:01.375Z,12.82
2022-10-16T22:01:31.098Z,12.18
2022-10-16T22:03:59.348Z,13.40
2022-10-16T22:06:29.024Z,12.35
2022-10-16T22:08:59.670Z,11.30
2022-10-16T22:11:29.734Z,12.15
2022-10-16T22:13:59.297Z,11.95
2022-10-16T22:16:28.131Z,13.10
2022-10-16T22:18:57.240Z,14.70
2022-10-16T22:21:25.609Z,15.88
2022-10-16T22:23:53.466Z,15.02
2022-10-16T22:26:21.864Z,16.15
2022-10-16T22:28:49.919Z,14.40
2022-10-16T22:31:19.359Z,13.50
2022-10-16T22:33:47.298Z,14.25
2022-10-16T22:36:16.302Z,13.82
2022-10-16T22:38:44.199Z,13.98
2022-10-16T22:41:14.002Z,13.75
2022-10-16T22:43:44.076Z,15.27
2022-10-16T22:46:14.535Z,16.45
2022-10-16T22:48:44.605Z,16.20
2022-10-16T22:51:16.718Z,15.18
2022-10-16T22:53:45.912Z,14.75
2022-10-16T22:56:14.482Z,13.82
2022-10-16T22:58:42.790Z,14.13
2022-10-16T23:01:16.416Z,13.95
2022-10-16T23:03:45.719Z,15.40
2022-10-16T23:06:13.613Z,14.60
2022-10-16T23:08:41.883Z,15.82
2022-10-16T23:11:11.629Z,14.10
2022-10-16T23:13:43.528Z,13.75
2022-10-16T23:16:12.367Z,14.05
2022-10-16T23:18:40.502Z,13.82
2022-10-16T23:21:11.608Z,13.55
2022-10-16T23:23:40.391Z,12.35
2022-10-16T23:26:11.390Z,10.88
2022-10-16T23:28:39.826Z,13.57
2022-10-16T23:31:08.832Z,12.50
2022-10-16T23:33:38.246Z,10.60
2022-10-16T23:36:08.305Z,11.80
2022-10-16T23:38:37.733Z,11.30
2022-10-16T23:41:05.893Z,11.10
2022-10-16T23:43:33.819Z,12.05
2022-10-16T23:46:01.956Z,11.90
2022-10-16T23:48:30.539Z,12.07
2022-10-16T23:50:58.488Z,11.48
2022-10-16T23:53:26.862Z,12.13
2022-10-16T23:55:56.197Z,10.43
2022-10-16T23:58:24.273Z,12.65
